sensor_id;sensor_type;location;lat;lon;timestamp;temperature;humidity
76567;DHT22;65428;53.194;6.132;2023-03-04T00:01:39;6.40;92.60
76567;DHT22;65428;53.194;6.132;2023-03-04T00:04:05;6.40;92.70
76567;DHT22;65428;53.194;6.132;2023-03-04T00:06:30;6.40;92.80
76567;DHT22;65428;53.194;6.132;2023-03-04T00:08:56;6.40;92.80
76567;DHT22;65428;53.194;6.132;2023-03-04T00:11:22;6.40;92.40
76567;DHT22;65428;53.194;6.132;2023-03-04T00:13:48;6.40;92.30
76567;DHT22;65428;53.194;6.132;2023-03-04T00:16:14;6.40;92.30
76567;DHT22;65428;53.194;6.132;2023-03-04T00:18:39;6.40;92.40
76567;DHT22;65428;53.194;6.132;2023-03-04T00:21:05;6.40;92.40
76567;DHT22;65428;53.194;6.132;2023-03-04T00:23:31;6.40;92.40
76567;DHT22;65428;53.194;6.132;2023-03-04T00:25:56;6.40;92.50
76567;DHT22;65428;53.194;6.132;2023-03-04T00:28:22;6.40;92.50
76567;DHT22;65428;53.194;6.132;2023-03-04T00:30:48;6.40;92.50
76567;DHT22;65428;53.194;6.132;2023-03-04T00:33:13;6.40;92.60
76567;DHT22;65428;53.194;6.132;2023-03-04T00:35:39;6.40;92.60
76567;DHT22;65428;53.194;6.132;2023-03-04T00:38:05;6.40;92.60
76567;DHT22;65428;53.194;6.132;2023-03-04T00:40:30;6.40;92.70
76567;DHT22;65428;53.194;6.132;2023-03-04T00:42:56;6.40;92.50
76567;DHT22;65428;53.194;6.132;2023-03-04T00:45:22;6.40;92.60
76567;DHT22;65428;53.194;6.132;2023-03-04T00:47:47;6.40;92.70
76567;DHT22;65428;53.194;6.132;2023-03-04T00:50:13;6.40;92.50
76567;DHT22;65428;53.194;6.132;2023-03-04T00:52:38;6.40;92.70
76567;DHT22;65428;53.194;6.132;2023-03-04T00:55:05;6.40;92.30
76567;DHT22;65428;53.194;6.132;2023-03-04T00:57:30;6.30;92.00
76567;DHT22;65428;53.194;6.132;2023-03-04T00:59:56;6.30;92.10
76567;DHT22;65428;53.194;6.132;2023-03-04T01:02:22;6.30;92.30
76567;DHT22;65428;53.194;6.132;2023-03-04T01:04:47;6.30;92.40
76567;DHT22;65428;53.194;6.132;2023-03-04T01:07:13;6.30;92.50
76567;DHT22;65428;53.194;6.132;2023-03-04T01:09:38;6.30;92.60
76567;DHT22;65428;53.194;6.132;2023-03-04T01:12:04;6.30;92.80
76567;DHT22;65428;53.194;6.132;2023-03-04T01:14:30;6.30;93.00
76567;DHT22;65428;53.194;6.132;2023-03-04T01:16:56;6.40;93.10
76567;DHT22;65428;53.194;6.132;2023-03-04T01:19:22;6.30;93.20
76567;DHT22;65428;53.194;6.132;2023-03-04T01:21:47;6.40;93.40
76567;DHT22;65428;53.194;6.132;2023-03-04T01:24:13;6.30;93.80
76567;DHT22;65428;53.194;6.132;2023-03-04T01:26:38;6.30;94.10
76567;DHT22;65428;53.194;6.132;2023-03-04T01:29:04;6.30;94.40
76567;DHT22;65428;53.194;6.132;2023-03-04T01:31:30;6.30;94.50
76567;DHT22;65428;53.194;6.132;2023-03-04T01:33:55;6.30;94.60
76567;DHT22;65428;53.194;6.132;2023-03-04T01:36:21;6.30;94.80
76567;DHT22;65428;53.194;6.132;2023-03-04T01:38:46;6.30;95.00
76567;DHT22;65428;53.194;6.132;2023-03-04T01:41:13;6.30;94.90
76567;DHT22;65428;53.194;6.132;2023-03-04T01:43:39;6.30;95.00
76567;DHT22;65428;53.194;6.132;2023-03-04T01:46:05;6.30;95.00
76567;DHT22;65428;53.194;6.132;2023-03-04T01:48:34;6.30;94.90
76567;DHT22;65428;53.194;6.132;2023-03-04T01:51:05;6.30;94.90
76567;DHT22;65428;53.194;6.132;2023-03-04T01:53:32;6.30;94.90
76567;DHT22;65428;53.194;6.132;2023-03-04T01:56:11;6.20;94.70
76567;DHT22;65428;53.194;6.132;2023-03-04T01:58:39;6.20;94.50
76567;DHT22;65428;53.194;6.132;2023-03-04T02:01:04;6.30;94.60
76567;DHT22;65428;53.194;6.132;2023-03-04T02:03:30;6.20;94.50
76567;DHT22;65428;53.194;6.132;2023-03-04T02:05:55;6.20;94.50
76567;DHT22;65428;53.194;6.132;2023-03-04T02:08:22;6.20;94.50
76567;DHT22;65428;53.194;6.132;2023-03-04T02:10:50;6.20;94.30
76567;DHT22;65428;53.194;6.132;2023-03-04T02:13:16;6.30;93.80
76567;DHT22;65428;53.194;6.132;2023-03-04T02:15:43;6.20;93.50
76567;DHT22;65428;53.194;6.132;2023-03-04T02:18:18;6.30;93.40
76567;DHT22;65428;53.194;6.132;2023-03-04T02:24:11;6.30;93.50
76567;DHT22;65428;53.194;6.132;2023-03-04T02:26:40;6.30;93.50
76567;DHT22;65428;53.194;6.132;2023-03-04T02:29:10;6.30;93.50
76567;DHT22;65428;53.194;6.132;2023-03-04T02:31:38;6.30;93.40
76567;DHT22;65428;53.194;6.132;2023-03-04T02:34:14;6.30;93.30
76567;DHT22;65428;53.194;6.132;2023-03-04T02:36:41;6.30;93.20
76567;DHT22;65428;53.194;6.132;2023-03-04T02:41:43;6.30;93.30
76567;DHT22;65428;53.194;6.132;2023-03-04T02:44:25;6.30;93.40
76567;DHT22;65428;53.194;6.132;2023-03-04T02:46:51;6.30;93.20
76567;DHT22;65428;53.194;6.132;2023-03-04T02:49:18;6.30;93.30
76567;DHT22;65428;53.194;6.132;2023-03-04T02:51:45;6.30;93.40
76567;DHT22;65428;53.194;6.132;2023-03-04T02:54:19;6.30;93.40
76567;DHT22;65428;53.194;6.132;2023-03-04T02:56:48;6.30;93.40
76567;DHT22;65428;53.194;6.132;2023-03-04T02:59:14;6.30;93.40
76567;DHT22;65428;53.194;6.132;2023-03-04T03:01:40;6.30;93.40
76567;DHT22;65428;53.194;6.132;2023-03-04T03:04:06;6.30;93.40
76567;DHT22;65428;53.194;6.132;2023-03-04T03:06:31;6.30;93.40
76567;DHT22;65428;53.194;6.132;2023-03-04T03:08:57;6.30;93.50
76567;DHT22;65428;53.194;6.132;2023-03-04T03:11:22;6.30;93.30
76567;DHT22;65428;53.194;6.132;2023-03-04T03:13:48;6.30;93.30
76567;DHT22;65428;53.194;6.132;2023-03-04T03:16:14;6.30;93.40
76567;DHT22;65428;53.194;6.132;2023-03-04T03:18:39;6.40;93.50
76567;DHT22;65428;53.194;6.132;2023-03-04T03:21:06;6.30;93.90
76567;DHT22;65428;53.194;6.132;2023-03-04T03:23:32;6.60;94.10
76567;DHT22;65428;53.194;6.132;2023-03-04T03:25:58;6.30;94.20
76567;DHT22;65428;53.194;6.132;2023-03-04T03:28:23;6.40;94.50
76567;DHT22;65428;53.194;6.132;2023-03-04T03:30:49;6.30;94.60
76567;DHT22;65428;53.194;6.132;2023-03-04T03:33:15;6.30;94.60
76567;DHT22;65428;53.194;6.132;2023-03-04T03:35:40;6.30;94.70
76567;DHT22;65428;53.194;6.132;2023-03-04T03:38:06;6.30;94.70
76567;DHT22;65428;53.194;6.132;2023-03-04T03:40:31;6.30;94.90
76567;DHT22;65428;53.194;6.132;2023-03-04T03:42:57;6.40;95.10
76567;DHT22;65428;53.194;6.132;2023-03-04T03:45:23;6.30;95.20
76567;DHT22;65428;53.194;6.132;2023-03-04T03:47:48;6.30;95.50
76567;DHT22;65428;53.194;6.132;2023-03-04T03:50:14;6.30;95.30
76567;DHT22;65428;53.194;6.132;2023-03-04T03:52:40;6.30;95.50
76567;DHT22;65428;53.194;6.132;2023-03-04T03:55:06;6.30;95.50
76567;DHT22;65428;53.194;6.132;2023-03-04T03:57:31;6.30;95.70
76567;DHT22;65428;53.194;6.132;2023-03-04T03:59:57;6.30;95.60
76567;DHT22;65428;53.194;6.132;2023-03-04T04:02:23;6.30;95.80
76567;DHT22;65428;53.194;6.132;2023-03-04T04:04:48;6.30;95.80
76567;DHT22;65428;53.194;6.132;2023-03-04T04:07:14;6.30;95.90
76567;DHT22;65428;53.194;6.132;2023-03-04T04:09:40;6.30;96.00
76567;DHT22;65428;53.194;6.132;2023-03-04T04:12:06;6.40;96.30
76567;DHT22;65428;53.194;6.132;2023-03-04T04:14:32;6.30;96.20
76567;DHT22;65428;53.194;6.132;2023-03-04T04:16:58;6.30;96.10
76567;DHT22;65428;53.194;6.132;2023-03-04T04:19:24;6.30;96.30
76567;DHT22;65428;53.194;6.132;2023-03-04T04:21:49;6.30;96.30
76567;DHT22;65428;53.194;6.132;2023-03-04T04:24:15;6.30;96.10
76567;DHT22;65428;53.194;6.132;2023-03-04T04:26:41;6.30;96.10
76567;DHT22;65428;53.194;6.132;2023-03-04T04:29:08;6.40;96.20
76567;DHT22;65428;53.194;6.132;2023-03-04T04:31:34;6.40;96.20
76567;DHT22;65428;53.194;6.132;2023-03-04T04:34:00;6.40;96.20
76567;DHT22;65428;53.194;6.132;2023-03-04T04:36:26;6.40;96.20
76567;DHT22;65428;53.194;6.132;2023-03-04T04:38:51;6.40;96.10
76567;DHT22;65428;53.194;6.132;2023-03-04T04:41:23;6.40;96.40
76567;DHT22;65428;53.194;6.132;2023-03-04T04:43:49;6.40;96.20
76567;DHT22;65428;53.194;6.132;2023-03-04T04:46:15;6.40;96.10
76567;DHT22;65428;53.194;6.132;2023-03-04T04:48:41;6.40;96.20
76567;DHT22;65428;53.194;6.132;2023-03-04T04:51:07;6.40;96.30
76567;DHT22;65428;53.194;6.132;2023-03-04T04:53:33;6.30;96.30
76567;DHT22;65428;53.194;6.132;2023-03-04T04:55:58;6.50;96.60
76567;DHT22;65428;53.194;6.132;2023-03-04T04:58:24;6.20;97.20
76567;DHT22;65428;53.194;6.132;2023-03-04T05:00:50;5.90;97.60
76567;DHT22;65428;53.194;6.132;2023-03-04T05:03:16;6.30;97.90
76567;DHT22;65428;53.194;6.132;2023-03-04T05:05:42;6.30;98.00
76567;DHT22;65428;53.194;6.132;2023-03-04T05:08:07;6.40;98.10
76567;DHT22;65428;53.194;6.132;2023-03-04T05:10:33;6.30;98.30
76567;DHT22;65428;53.194;6.132;2023-03-04T05:12:58;6.30;98.50
76567;DHT22;65428;53.194;6.132;2023-03-04T05:15:24;6.30;98.70
76567;DHT22;65428;53.194;6.132;2023-03-04T05:17:50;6.30;98.80
76567;DHT22;65428;53.194;6.132;2023-03-04T05:20:15;6.40;99.00
76567;DHT22;65428;53.194;6.132;2023-03-04T05:22:41;6.30;98.90
76567;DHT22;65428;53.194;6.132;2023-03-04T05:25:07;6.30;98.90
76567;DHT22;65428;53.194;6.132;2023-03-04T05:27:33;6.30;99.10
76567;DHT22;65428;53.194;6.132;2023-03-04T05:29:58;6.30;99.50
76567;DHT22;65428;53.194;6.132;2023-03-04T05:32:24;6.30;99.70
76567;DHT22;65428;53.194;6.132;2023-03-04T05:34:50;6.30;99.80
76567;DHT22;65428;53.194;6.132;2023-03-04T05:37:15;6.20;99.90
76567;DHT22;65428;53.194;6.132;2023-03-04T05:39:41;6.20;99.90
76567;DHT22;65428;53.194;6.132;2023-03-04T05:42:06;6.20;99.90
76567;DHT22;65428;53.194;6.132;2023-03-04T05:44:32;6.10;99.90
76567;DHT22;65428;53.194;6.132;2023-03-04T05:46:58;6.10;99.90
76567;DHT22;65428;53.194;6.132;2023-03-04T05:49:23;6.00;99.90
76567;DHT22;65428;53.194;6.132;2023-03-04T05:51:49;6.00;99.90
76567;DHT22;65428;53.194;6.132;2023-03-04T05:54:14;6.00;99.90
76567;DHT22;65428;53.194;6.132;2023-03-04T05:56:40;6.00;99.90
76567;DHT22;65428;53.194;6.132;2023-03-04T05:59:06;5.90;99.90
76567;DHT22;65428;53.194;6.132;2023-03-04T06:01:32;6.00;99.90
76567;DHT22;65428;53.194;6.132;2023-03-04T06:03:57;5.90;99.90
76567;DHT22;65428;53.194;6.132;2023-03-04T06:06:23;5.80;99.90
76567;DHT22;65428;53.194;6.132;2023-03-04T06:08:48;5.80;99.90
76567;DHT22;65428;53.194;6.132;2023-03-04T06:11:14;6.40;99.90
76567;DHT22;65428;53.194;6.132;2023-03-04T06:13:40;5.60;99.90
76567;DHT22;65428;53.194;6.132;2023-03-04T06:16:06;5.70;99.90
76567;DHT22;65428;53.194;6.132;2023-03-04T06:18:31;5.60;99.90
76567;DHT22;65428;53.194;6.132;2023-03-04T06:20:58;5.60;99.90
76567;DHT22;65428;53.194;6.132;2023-03-04T06:23:25;5.60;99.90
76567;DHT22;65428;53.194;6.132;2023-03-04T06:25:55;5.60;99.90
76567;DHT22;65428;53.194;6.132;2023-03-04T06:28:22;5.60;99.90
76567;DHT22;65428;53.194;6.132;2023-03-04T06:30:47;5.60;99.90
76567;DHT22;65428;53.194;6.132;2023-03-04T06:33:15;5.60;99.90
76567;DHT22;65428;53.194;6.132;2023-03-04T06:35:41;5.70;99.90
76567;DHT22;65428;53.194;6.132;2023-03-04T06:38:06;5.70;99.90
76567;DHT22;65428;53.194;6.132;2023-03-04T06:40:32;6.00;99.90
76567;DHT22;65428;53.194;6.132;2023-03-04T06:42:58;5.70;99.90
76567;DHT22;65428;53.194;6.132;2023-03-04T06:45:25;6.00;99.90
76567;DHT22;65428;53.194;6.132;2023-03-04T06:47:58;5.80;99.90
76567;DHT22;65428;53.194;6.132;2023-03-04T06:50:23;5.80;99.90
76567;DHT22;65428;53.194;6.132;2023-03-04T06:52:49;6.10;99.90
76567;DHT22;65428;53.194;6.132;2023-03-04T06:55:15;5.80;99.90
76567;DHT22;65428;53.194;6.132;2023-03-04T06:57:40;5.90;99.90
76567;DHT22;65428;53.194;6.132;2023-03-04T07:00:06;5.90;99.90
76567;DHT22;65428;53.194;6.132;2023-03-04T07:02:32;5.90;99.90
76567;DHT22;65428;53.194;6.132;2023-03-04T07:04:58;5.90;99.90
76567;DHT22;65428;53.194;6.132;2023-03-04T07:07:24;5.90;99.90
76567;DHT22;65428;53.194;6.132;2023-03-04T07:09:50;6.00;99.90
76567;DHT22;65428;53.194;6.132;2023-03-04T07:12:16;6.20;99.90
76567;DHT22;65428;53.194;6.132;2023-03-04T07:14:41;6.00;99.90
76567;DHT22;65428;53.194;6.132;2023-03-04T07:17:07;6.00;99.90
76567;DHT22;65428;53.194;6.132;2023-03-04T07:19:33;6.00;99.90
76567;DHT22;65428;53.194;6.132;2023-03-04T07:21:58;6.00;99.90
76567;DHT22;65428;53.194;6.132;2023-03-04T07:24:24;6.00;99.90
76567;DHT22;65428;53.194;6.132;2023-03-04T07:26:49;6.00;99.90
76567;DHT22;65428;53.194;6.132;2023-03-04T07:29:15;6.00;99.90
76567;DHT22;65428;53.194;6.132;2023-03-04T07:31:41;6.00;99.90
76567;DHT22;65428;53.194;6.132;2023-03-04T07:34:08;6.00;99.90
76567;DHT22;65428;53.194;6.132;2023-03-04T07:36:35;6.30;99.90
76567;DHT22;65428;53.194;6.132;2023-03-04T07:39:01;6.10;99.90
76567;DHT22;65428;53.194;6.132;2023-03-04T07:41:27;6.40;99.90
76567;DHT22;65428;53.194;6.132;2023-03-04T07:43:56;6.20;99.90
76567;DHT22;65428;53.194;6.132;2023-03-04T07:46:22;6.30;99.90
76567;DHT22;65428;53.194;6.132;2023-03-04T07:48:47;6.20;99.90
76567;DHT22;65428;53.194;6.132;2023-03-04T07:51:16;6.30;99.90
76567;DHT22;65428;53.194;6.132;2023-03-04T07:53:43;6.50;99.90
76567;DHT22;65428;53.194;6.132;2023-03-04T07:56:15;6.40;99.90
76567;DHT22;65428;53.194;6.132;2023-03-04T07:58:41;6.40;99.90
76567;DHT22;65428;53.194;6.132;2023-03-04T08:01:16;6.50;99.90
76567;DHT22;65428;53.194;6.132;2023-03-04T08:03:42;6.50;99.90
76567;DHT22;65428;53.194;6.132;2023-03-04T08:06:10;6.50;99.90
76567;DHT22;65428;53.194;6.132;2023-03-04T08:08:36;6.40;99.90
76567;DHT22;65428;53.194;6.132;2023-03-04T08:11:06;6.50;99.90
76567;DHT22;65428;53.194;6.132;2023-03-04T08:13:32;6.40;99.90
76567;DHT22;65428;53.194;6.132;2023-03-04T08:15:58;6.40;99.90
76567;DHT22;65428;53.194;6.132;2023-03-04T08:18:24;6.50;99.80
76567;DHT22;65428;53.194;6.132;2023-03-04T08:20:50;6.50;99.30
76567;DHT22;65428;53.194;6.132;2023-03-04T08:23:17;6.50;98.50
76567;DHT22;65428;53.194;6.132;2023-03-04T08:25:43;6.60;98.60
76567;DHT22;65428;53.194;6.132;2023-03-04T08:28:09;6.60;98.20
76567;DHT22;65428;53.194;6.132;2023-03-04T08:30:35;6.80;98.20
76567;DHT22;65428;53.194;6.132;2023-03-04T08:33:02;6.70;97.90
76567;DHT22;65428;53.194;6.132;2023-03-04T08:35:28;6.80;97.10
76567;DHT22;65428;53.194;6.132;2023-03-04T08:37:54;6.80;95.90
76567;DHT22;65428;53.194;6.132;2023-03-04T08:40:19;6.90;95.30
76567;DHT22;65428;53.194;6.132;2023-03-04T08:42:45;6.90;95.20
76567;DHT22;65428;53.194;6.132;2023-03-04T08:45:11;7.30;95.50
76567;DHT22;65428;53.194;6.132;2023-03-04T08:47:36;7.30;95.40
76567;DHT22;65428;53.194;6.132;2023-03-04T08:50:04;6.80;95.30
76567;DHT22;65428;53.194;6.132;2023-03-04T08:52:30;7.00;95.60
76567;DHT22;65428;53.194;6.132;2023-03-04T08:54:56;6.90;95.10
76567;DHT22;65428;53.194;6.132;2023-03-04T08:57:22;7.30;95.10
76567;DHT22;65428;53.194;6.132;2023-03-04T08:59:48;7.00;95.80
76567;DHT22;65428;53.194;6.132;2023-03-04T09:02:13;7.00;95.90
76567;DHT22;65428;53.194;6.132;2023-03-04T09:04:39;6.90;96.20
76567;DHT22;65428;53.194;6.132;2023-03-04T09:07:05;7.00;95.60
76567;DHT22;65428;53.194;6.132;2023-03-04T09:09:30;7.00;96.10
76567;DHT22;65428;53.194;6.132;2023-03-04T09:11:56;7.10;96.10
76567;DHT22;65428;53.194;6.132;2023-03-04T09:14:22;7.10;96.20
76567;DHT22;65428;53.194;6.132;2023-03-04T09:16:48;7.20;95.90
76567;DHT22;65428;53.194;6.132;2023-03-04T09:19:13;7.40;95.90
76567;DHT22;65428;53.194;6.132;2023-03-04T09:21:39;7.20;95.60
76567;DHT22;65428;53.194;6.132;2023-03-04T09:24:05;7.20;95.70
76567;DHT22;65428;53.194;6.132;2023-03-04T09:26:30;7.30;95.90
76567;DHT22;65428;53.194;6.132;2023-03-04T09:28:58;7.30;96.00
76567;DHT22;65428;53.194;6.132;2023-03-04T09:31:25;7.30;95.90
76567;DHT22;65428;53.194;6.132;2023-03-04T09:33:52;7.30;95.30
76567;DHT22;65428;53.194;6.132;2023-03-04T09:36:18;7.30;93.80
76567;DHT22;65428;53.194;6.132;2023-03-04T09:38:45;7.60;93.40
76567;DHT22;65428;53.194;6.132;2023-03-04T09:41:25;7.50;92.70
76567;DHT22;65428;53.194;6.132;2023-03-04T09:43:53;7.50;92.80
76567;DHT22;65428;53.194;6.132;2023-03-04T09:46:37;7.60;92.30
76567;DHT22;65428;53.194;6.132;2023-03-04T09:49:04;7.60;91.90
76567;DHT22;65428;53.194;6.132;2023-03-04T09:51:53;7.50;91.80
76567;DHT22;65428;53.194;6.132;2023-03-04T10:00:24;7.50;93.30
76567;DHT22;65428;53.194;6.132;2023-03-04T10:05:50;7.70;92.80
76567;DHT22;65428;53.194;6.132;2023-03-04T10:08:25;7.80;92.50
76567;DHT22;65428;53.194;6.132;2023-03-04T10:10:54;7.90;91.70
76567;DHT22;65428;53.194;6.132;2023-03-04T10:13:38;8.00;91.10
76567;DHT22;65428;53.194;6.132;2023-03-04T10:16:10;8.20;92.20
76567;DHT22;65428;53.194;6.132;2023-03-04T10:18:42;8.40;91.60
76567;DHT22;65428;53.194;6.132;2023-03-04T10:23:53;8.50;91.80
76567;DHT22;65428;53.194;6.132;2023-03-04T10:26:20;8.40;91.90
76567;DHT22;65428;53.194;6.132;2023-03-04T10:28:47;8.00;92.80
76567;DHT22;65428;53.194;6.132;2023-03-04T10:31:20;7.90;94.40
76567;DHT22;65428;53.194;6.132;2023-03-04T10:33:47;7.80;94.30
76567;DHT22;65428;53.194;6.132;2023-03-04T10:39:15;7.90;95.10
76567;DHT22;65428;53.194;6.132;2023-03-04T10:41:44;7.90;95.20
76567;DHT22;65428;53.194;6.132;2023-03-04T10:46:46;7.80;95.00
76567;DHT22;65428;53.194;6.132;2023-03-04T10:49:17;7.80;95.00
76567;DHT22;65428;53.194;6.132;2023-03-04T10:51:44;8.00;95.00
76567;DHT22;65428;53.194;6.132;2023-03-04T10:54:38;8.20;93.80
76567;DHT22;65428;53.194;6.132;2023-03-04T10:57:13;8.60;93.60
76567;DHT22;65428;53.194;6.132;2023-03-04T10:59:47;9.10;93.10
76567;DHT22;65428;53.194;6.132;2023-03-04T11:02:19;9.20;91.60
76567;DHT22;65428;53.194;6.132;2023-03-04T11:07:44;8.60;90.40
76567;DHT22;65428;53.194;6.132;2023-03-04T11:10:30;8.50;90.30
76567;DHT22;65428;53.194;6.132;2023-03-04T11:13:01;8.60;87.60
76567;DHT22;65428;53.194;6.132;2023-03-04T11:15:29;8.80;85.40
76567;DHT22;65428;53.194;6.132;2023-03-04T11:18:16;9.10;87.70
76567;DHT22;65428;53.194;6.132;2023-03-04T11:20:46;9.00;83.00
76567;DHT22;65428;53.194;6.132;2023-03-04T11:23:17;8.90;85.60
76567;DHT22;65428;53.194;6.132;2023-03-04T11:25:47;8.80;85.50
76567;DHT22;65428;53.194;6.132;2023-03-04T11:31:27;8.80;85.70
76567;DHT22;65428;53.194;6.132;2023-03-04T11:34:00;9.00;84.60
76567;DHT22;65428;53.194;6.132;2023-03-04T11:42:35;8.90;85.40
76567;DHT22;65428;53.194;6.132;2023-03-04T11:45:03;8.50;87.80
76567;DHT22;65428;53.194;6.132;2023-03-04T11:52:52;8.30;90.90
76567;DHT22;65428;53.194;6.132;2023-03-04T11:55:53;8.30;90.40
76567;DHT22;65428;53.194;6.132;2023-03-04T11:58:44;8.30;91.00
76567;DHT22;65428;53.194;6.132;2023-03-04T12:04:37;8.30;87.30
76567;DHT22;65428;53.194;6.132;2023-03-04T12:21:37;8.40;86.10
76567;DHT22;65428;53.194;6.132;2023-03-04T12:30:02;8.30;87.30
76567;DHT22;65428;53.194;6.132;2023-03-04T12:32:54;8.60;88.10
76567;DHT22;65428;53.194;6.132;2023-03-04T12:35:46;9.30;83.10
76567;DHT22;65428;53.194;6.132;2023-03-04T12:41:26;9.50;79.70
76567;DHT22;65428;53.194;6.132;2023-03-04T12:46:36;9.10;81.60
76567;DHT22;65428;53.194;6.132;2023-03-04T12:54:45;8.30;87.20
76567;DHT22;65428;53.194;6.132;2023-03-04T12:57:13;8.80;85.60
76567;DHT22;65428;53.194;6.132;2023-03-04T13:05:41;10.50;76.80
76567;DHT22;65428;53.194;6.132;2023-03-04T13:08:28;10.90;77.30
76567;DHT22;65428;53.194;6.132;2023-03-04T13:11:49;11.40;71.50
76567;DHT22;65428;53.194;6.132;2023-03-04T13:14:04;11.30;69.90
76567;DHT22;65428;53.194;6.132;2023-03-04T13:16:50;10.90;68.50
76567;DHT22;65428;53.194;6.132;2023-03-04T13:19:46;11.10;70.30
76567;DHT22;65428;53.194;6.132;2023-03-04T13:24:59;10.30;72.50
76567;DHT22;65428;53.194;6.132;2023-03-04T13:27:45;10.00;72.30
76567;DHT22;65428;53.194;6.132;2023-03-04T13:43:52;8.50;90.50
76567;DHT22;65428;53.194;6.132;2023-03-04T13:51:35;8.80;90.20
76567;DHT22;65428;53.194;6.132;2023-03-04T13:56:57;8.80;88.10
76567;DHT22;65428;53.194;6.132;2023-03-04T13:59:56;8.80;88.60
76567;DHT22;65428;53.194;6.132;2023-03-04T14:02:23;8.40;88.20
76567;DHT22;65428;53.194;6.132;2023-03-04T14:07:38;8.00;90.00
76567;DHT22;65428;53.194;6.132;2023-03-04T14:12:53;7.50;90.40
76567;DHT22;65428;53.194;6.132;2023-03-04T14:15:28;7.30;90.60
76567;DHT22;65428;53.194;6.132;2023-03-04T14:17:57;7.30;91.10
76567;DHT22;65428;53.194;6.132;2023-03-04T14:20:35;8.00;91.00
76567;DHT22;65428;53.194;6.132;2023-03-04T14:23:03;8.40;90.10
76567;DHT22;65428;53.194;6.132;2023-03-04T14:25:34;9.10;86.80
76567;DHT22;65428;53.194;6.132;2023-03-04T14:28:12;9.30;85.60
76567;DHT22;65428;53.194;6.132;2023-03-04T14:30:40;8.90;84.30
76567;DHT22;65428;53.194;6.132;2023-03-04T14:33:08;8.40;87.10
76567;DHT22;65428;53.194;6.132;2023-03-04T14:35:35;7.90;88.90
76567;DHT22;65428;53.194;6.132;2023-03-04T14:40:44;7.20;91.80
76567;DHT22;65428;53.194;6.132;2023-03-04T14:43:15;7.00;91.70
76567;DHT22;65428;53.194;6.132;2023-03-04T14:45:44;6.90;91.50
76567;DHT22;65428;53.194;6.132;2023-03-04T14:48:23;7.00;91.20
76567;DHT22;65428;53.194;6.132;2023-03-04T14:50:51;6.90;90.50
76567;DHT22;65428;53.194;6.132;2023-03-04T14:53:19;7.10;90.80
76567;DHT22;65428;53.194;6.132;2023-03-04T14:58:24;7.40;90.00
76567;DHT22;65428;53.194;6.132;2023-03-04T15:01:04;7.60;90.00
76567;DHT22;65428;53.194;6.132;2023-03-04T15:03:30;8.10;89.10
76567;DHT22;65428;53.194;6.132;2023-03-04T15:06:15;7.80;86.20
76567;DHT22;65428;53.194;6.132;2023-03-04T15:08:43;7.70;86.10
76567;DHT22;65428;53.194;6.132;2023-03-04T15:11:19;7.60;85.90
76567;DHT22;65428;53.194;6.132;2023-03-04T15:13:48;7.40;86.40
76567;DHT22;65428;53.194;6.132;2023-03-04T15:16:17;7.40;87.40
76567;DHT22;65428;53.194;6.132;2023-03-04T15:19:00;7.40;88.00
76567;DHT22;65428;53.194;6.132;2023-03-04T15:21:39;7.30;88.70
76567;DHT22;65428;53.194;6.132;2023-03-04T15:24:07;7.20;89.30
76567;DHT22;65428;53.194;6.132;2023-03-04T15:26:36;7.10;90.40
76567;DHT22;65428;53.194;6.132;2023-03-04T15:29:16;6.90;90.70
76567;DHT22;65428;53.194;6.132;2023-03-04T15:31:43;6.80;91.00
76567;DHT22;65428;53.194;6.132;2023-03-04T15:34:20;6.80;90.80
76567;DHT22;65428;53.194;6.132;2023-03-04T15:36:49;6.80;91.40
76567;DHT22;65428;53.194;6.132;2023-03-04T15:39:16;6.80;91.00
76567;DHT22;65428;53.194;6.132;2023-03-04T15:41:42;6.70;91.10
76567;DHT22;65428;53.194;6.132;2023-03-04T15:44:10;6.90;91.30
76567;DHT22;65428;53.194;6.132;2023-03-04T15:46:36;6.80;91.40
76567;DHT22;65428;53.194;6.132;2023-03-04T15:49:02;6.80;90.80
76567;DHT22;65428;53.194;6.132;2023-03-04T15:51:29;6.80;90.70
76567;DHT22;65428;53.194;6.132;2023-03-04T15:53:56;6.70;90.60
76567;DHT22;65428;53.194;6.132;2023-03-04T15:56:25;6.60;90.90
76567;DHT22;65428;53.194;6.132;2023-03-04T16:01:26;6.50;91.30
76567;DHT22;65428;53.194;6.132;2023-03-04T16:03:52;6.50;91.20
76567;DHT22;65428;53.194;6.132;2023-03-04T16:06:19;6.50;90.90
76567;DHT22;65428;53.194;6.132;2023-03-04T16:08:49;6.80;91.20
76567;DHT22;65428;53.194;6.132;2023-03-04T16:11:24;6.50;90.70
76567;DHT22;65428;53.194;6.132;2023-03-04T16:13:50;6.50;91.10
76567;DHT22;65428;53.194;6.132;2023-03-04T16:16:17;6.40;91.10
76567;DHT22;65428;53.194;6.132;2023-03-04T16:18:43;6.20;92.50
76567;DHT22;65428;53.194;6.132;2023-03-04T16:21:20;6.10;92.70
76567;DHT22;65428;53.194;6.132;2023-03-04T16:23:49;6.00;92.60
76567;DHT22;65428;53.194;6.132;2023-03-04T16:26:20;5.90;92.30
76567;DHT22;65428;53.194;6.132;2023-03-04T16:28:46;5.90;92.30
76567;DHT22;65428;53.194;6.132;2023-03-04T16:31:13;5.90;92.70
76567;DHT22;65428;53.194;6.132;2023-03-04T16:33:40;5.80;92.40
76567;DHT22;65428;53.194;6.132;2023-03-04T16:36:22;5.80;92.20
76567;DHT22;65428;53.194;6.132;2023-03-04T16:38:49;5.80;91.90
76567;DHT22;65428;53.194;6.132;2023-03-04T16:41:16;5.80;91.80
76567;DHT22;65428;53.194;6.132;2023-03-04T16:43:42;5.80;91.60
76567;DHT22;65428;53.194;6.132;2023-03-04T16:46:10;5.70;91.80
76567;DHT22;65428;53.194;6.132;2023-03-04T16:48:36;5.70;91.80
76567;DHT22;65428;53.194;6.132;2023-03-04T16:51:06;5.80;92.00
76567;DHT22;65428;53.194;6.132;2023-03-04T16:53:37;5.70;92.10
76567;DHT22;65428;53.194;6.132;2023-03-04T16:56:09;6.00;92.10
76567;DHT22;65428;53.194;6.132;2023-03-04T16:58:36;5.70;92.10
76567;DHT22;65428;53.194;6.132;2023-03-04T17:01:03;5.70;92.10
76567;DHT22;65428;53.194;6.132;2023-03-04T17:03:29;5.70;92.50
76567;DHT22;65428;53.194;6.132;2023-03-04T17:05:55;5.70;93.00
76567;DHT22;65428;53.194;6.132;2023-03-04T17:08:21;5.90;93.20
76567;DHT22;65428;53.194;6.132;2023-03-04T17:10:47;5.70;93.40
76567;DHT22;65428;53.194;6.132;2023-03-04T17:13:13;5.80;93.50
76567;DHT22;65428;53.194;6.132;2023-03-04T17:15:39;5.70;93.60
76567;DHT22;65428;53.194;6.132;2023-03-04T17:18:07;5.70;93.80
76567;DHT22;65428;53.194;6.132;2023-03-04T17:20:33;5.70;93.90
76567;DHT22;65428;53.194;6.132;2023-03-04T17:22:59;5.70;93.70
76567;DHT22;65428;53.194;6.132;2023-03-04T17:25:25;5.50;93.40
76567;DHT22;65428;53.194;6.132;2023-03-04T17:27:50;5.50;93.00
76567;DHT22;65428;53.194;6.132;2023-03-04T17:30:16;5.40;93.00
76567;DHT22;65428;53.194;6.132;2023-03-04T17:32:42;5.40;93.00
76567;DHT22;65428;53.194;6.132;2023-03-04T17:35:08;5.40;92.90
76567;DHT22;65428;53.194;6.132;2023-03-04T17:37:34;5.40;93.10
76567;DHT22;65428;53.194;6.132;2023-03-04T17:40:02;5.40;93.20
76567;DHT22;65428;53.194;6.132;2023-03-04T17:42:28;5.40;93.10
76567;DHT22;65428;53.194;6.132;2023-03-04T17:44:54;5.50;93.30
76567;DHT22;65428;53.194;6.132;2023-03-04T17:47:19;5.50;93.20
76567;DHT22;65428;53.194;6.132;2023-03-04T17:49:46;5.40;93.30
76567;DHT22;65428;53.194;6.132;2023-03-04T17:52:11;5.40;93.50